createdAt,value
2018-01-16T00:01:24.620Z,-3.00
2018-01-16T00:03:52.208Z,-3.04
2018-01-16T00:06:19.790Z,-3.07
2018-01-16T00:08:47.418Z,-3.18
2018-01-16T00:11:15.026Z,-3.25
2018-01-16T00:13:42.595Z,-3.19
2018-01-16T00:16:10.236Z,-3.23
2018-01-16T00:18:37.804Z,-3.25
2018-01-16T00:21:05.517Z,-3.18
2018-01-16T00:23:33.137Z,-3.19
2018-01-16T00:26:00.900Z,-3.10
2018-01-16T00:28:28.484Z,-3.15
2018-01-16T00:30:56.173Z,-3.12
2018-01-16T00:33:23.747Z,-3.09
2018-01-16T00:35:51.488Z,-3.08
2018-01-16T00:38:19.149Z,-3.24
2018-01-16T00:40:46.885Z,-3.34
2018-01-16T00:43:14.675Z,-3.35
2018-01-16T00:45:42.297Z,-3.35
2018-01-16T00:48:09.890Z,-3.33
2018-01-16T00:50:37.471Z,-3.33
2018-01-16T00:53:05.103Z,-3.27
2018-01-16T00:55:33.003Z,-3.25
2018-01-16T00:58:00.602Z,-3.23
2018-01-16T01:00:28.316Z,-3.26
2018-01-16T01:02:55.902Z,-3.24
2018-01-16T01:05:23.484Z,-3.24
2018-01-16T01:07:51.104Z,-3.33
2018-01-16T01:10:18.696Z,-3.39
2018-01-16T01:12:46.278Z,-3.37
2018-01-16T01:15:14.083Z,-3.43
2018-01-16T01:17:41.668Z,-3.37
2018-01-16T01:20:09.245Z,-3.25
2018-01-16T01:22:37.080Z,-3.22
2018-01-16T01:25:04.741Z,-3.24
2018-01-16T01:27:32.469Z,-3.24
2018-01-16T01:30:00.270Z,-3.16
2018-01-16T01:32:27.934Z,-3.12
2018-01-16T01:34:55.585Z,-3.11
2018-01-16T01:37:23.211Z,-3.10
2018-01-16T01:39:50.792Z,-3.13
2018-01-16T01:42:18.354Z,-3.15
2018-01-16T01:44:45.968Z,-3.13
2018-01-16T01:47:13.689Z,-3.13
2018-01-16T01:49:41.266Z,-3.08
2018-01-16T01:52:09.007Z,-3.00
2018-01-16T01:54:36.688Z,-2.94
2018-01-16T01:57:04.263Z,-2.95
2018-01-16T01:59:31.867Z,-2.87
2018-01-16T02:01:59.434Z,-2.86
2018-01-16T02:04:27.118Z,-2.91
2018-01-16T02:06:54.779Z,-2.89
2018-01-16T02:09:22.354Z,-2.91
2018-01-16T02:11:49.939Z,-2.95
2018-01-16T02:14:17.577Z,-2.97
2018-01-16T02:16:45.155Z,-2.97
2018-01-16T02:19:12.739Z,-2.90
2018-01-16T02:21:40.566Z,-2.84
2018-01-16T02:24:08.215Z,-2.86
2018-01-16T02:26:35.790Z,-2.92
2018-01-16T02:29:03.666Z,-3.03
2018-01-16T02:31:31.257Z,-3.12
2018-01-16T02:33:59.072Z,-3.04
2018-01-16T02:36:26.724Z,-3.07
2018-01-16T02:38:54.308Z,-3.18
2018-01-16T02:41:21.893Z,-3.32
2018-01-16T02:43:49.711Z,-3.32
2018-01-16T02:46:17.393Z,-3.18
2018-01-16T02:48:45.053Z,-3.19
2018-01-16T02:51:12.717Z,-3.16
2018-01-16T02:53:40.286Z,-3.07
2018-01-16T02:56:08.023Z,-2.99
2018-01-16T02:58:35.667Z,-2.95
2018-01-16T03:01:03.353Z,-2.86
2018-01-16T03:03:30.925Z,-2.84
2018-01-16T03:05:58.670Z,-2.92
2018-01-16T03:08:26.255Z,-2.98
2018-01-16T03:10:54.011Z,-2.97
2018-01-16T03:13:21.628Z,-2.98
2018-01-16T03:15:49.215Z,-3.05
2018-01-16T03:18:16.787Z,-3.08
2018-01-16T03:20:44.403Z,-2.99
2018-01-16T03:23:12.110Z,-2.93
2018-01-16T03:25:39.687Z,-2.91
2018-01-16T03:28:07.308Z,-2.84
2018-01-16T03:30:35.156Z,-2.91
2018-01-16T03:33:02.768Z,-2.92
2018-01-16T03:35:30.393Z,-2.87
2018-01-16T03:37:58.076Z,-2.83
2018-01-16T03:40:25.739Z,-2.84
2018-01-16T03:42:53.347Z,-2.89
2018-01-16T03:45:21.088Z,-2.89
2018-01-16T03:47:48.689Z,-2.97
2018-01-16T03:50:16.387Z,-2.97
2018-01-16T03:52:44.052Z,-2.88
2018-01-16T03:55:11.632Z,-2.83
2018-01-16T03:57:39.248Z,-2.85
2018-01-16T04:00:07.046Z,-2.80
2018-01-16T04:02:34.628Z,-2.77
2018-01-16T04:05:02.376Z,-2.73
2018-01-16T04:07:29.956Z,-2.68
2018-01-16T04:09:57.689Z,-2.67
2018-01-16T04:12:25.353Z,-2.67
2018-01-16T04:14:52.915Z,-2.74
2018-01-16T04:17:20.690Z,-2.74
2018-01-16T04:19:48.307Z,-2.73
2018-01-16T04:22:15.887Z,-2.71
2018-01-16T04:24:43.509Z,-2.72
2018-01-16T04:27:11.334Z,-2.76
2018-01-16T04:29:39.188Z,-2.81
2018-01-16T04:32:06.776Z,-2.79
2018-01-16T04:34:34.426Z,-2.89
2018-01-16T04:37:01.997Z,-2.85
2018-01-16T04:39:29.634Z,-2.84
2018-01-16T04:41:57.505Z,-2.86
2018-01-16T04:44:25.082Z,-2.85
2018-01-16T04:46:52.655Z,-2.81
2018-01-16T04:49:20.266Z,-2.81
2018-01-16T04:51:47.844Z,-2.91
2018-01-16T04:54:15.413Z,-2.90
2018-01-16T04:56:43.027Z,-2.87
2018-01-16T04:59:10.734Z,-2.82
2018-01-16T05:01:38.312Z,-2.79
2018-01-16T05:04:06.277Z,-2.85
2018-01-16T05:06:33.862Z,-2.82
2018-01-16T05:09:01.431Z,-2.84
2018-01-16T05:11:29.239Z,-2.86
2018-01-16T05:13:56.814Z,-2.95
2018-01-16T05:16:24.574Z,-2.92
2018-01-16T05:18:52.186Z,-2.92
2018-01-16T05:21:20.039Z,-2.95
2018-01-16T05:23:47.762Z,-3.17
2018-01-16T05:26:15.550Z,-3.05
2018-01-16T05:28:43.137Z,-2.96
2018-01-16T05:31:10.833Z,-2.95
2018-01-16T05:33:38.460Z,-2.94
2018-01-16T05:36:06.114Z,-2.93
2018-01-16T05:38:33.733Z,-2.94
2018-01-16T05:41:01.350Z,-2.90
2018-01-16T05:43:28.930Z,-2.86
2018-01-16T05:45:56.730Z,-2.86
2018-01-16T05:48:24.388Z,-2.86
2018-01-16T05:50:52.055Z,-2.86
2018-01-16T05:53:19.699Z,-2.80
2018-01-16T05:55:47.310Z,-2.80
2018-01-16T05:58:15.046Z,-2.78
2018-01-16T06:00:42.686Z,-2.69
2018-01-16T06:03:10.357Z,-2.62
2018-01-16T06:05:37.961Z,-2.68
2018-01-16T06:08:05.591Z,-2.64
2018-01-16T06:10:33.338Z,-2.61
2018-01-16T06:13:00.925Z,-2.60
2018-01-16T06:15:28.672Z,-2.60
2018-01-16T06:17:56.540Z,-2.43
2018-01-16T06:20:24.127Z,-2.47
2018-01-16T06:22:51.857Z,-2.40
2018-01-16T06:25:19.487Z,-2.30
2018-01-16T06:27:47.176Z,-2.13
2018-01-16T06:30:15.127Z,-1.95
2018-01-16T06:32:43.132Z,-1.83
2018-01-16T06:35:10.711Z,-1.87
2018-01-16T06:37:38.464Z,-1.75
2018-01-16T06:40:06.494Z,-1.62
2018-01-16T06:42:34.312Z,-1.49
2018-01-16T06:45:02.126Z,-1.30
2018-01-16T06:47:29.741Z,-1.12
2018-01-16T06:49:57.384Z,-0.98
2018-01-16T06:52:25.041Z,-0.85
2018-01-16T06:54:52.703Z,-0.80
2018-01-16T06:57:20.353Z,-0.72
2018-01-16T06:59:47.957Z,-0.63
2018-01-16T07:02:15.667Z,-0.46
2018-01-16T07:04:43.532Z,-0.24
2018-01-16T07:07:11.399Z,-0.20
2018-01-16T07:09:39.069Z,-0.04
2018-01-16T07:12:06.641Z,0.24
2018-01-16T07:14:34.403Z,0.85
2018-01-16T07:17:02.142Z,1.19
2018-01-16T07:19:29.774Z,1.57
2018-01-16T07:21:57.341Z,1.91
2018-01-16T07:24:25.011Z,1.48
2018-01-16T07:26:52.624Z,1.30
2018-01-16T07:29:20.236Z,0.94
2018-01-16T07:31:47.826Z,1.15
2018-01-16T07:34:15.508Z,1.03
2018-01-16T07:36:43.346Z,0.94
2018-01-16T07:39:11.088Z,1.10
2018-01-16T07:41:38.673Z,2.08
2018-01-16T07:44:06.256Z,2.45
2018-01-16T07:46:34.009Z,2.29
2018-01-16T07:49:01.685Z,2.17
2018-01-16T07:51:29.263Z,2.05
2018-01-16T07:53:57.188Z,1.70
2018-01-16T07:56:24.878Z,1.39
2018-01-16T07:58:52.444Z,1.08
2018-01-16T08:01:20.206Z,0.93
2018-01-16T08:03:48.031Z,0.88
2018-01-16T08:06:15.846Z,0.83
2018-01-16T08:08:43.597Z,0.75
2018-01-16T08:11:11.261Z,0.73
2018-01-16T08:13:39.096Z,0.81
2018-01-16T08:16:06.773Z,1.06
2018-01-16T08:18:34.397Z,1.93
2018-01-16T08:21:01.960Z,3.10
2018-01-16T08:23:29.766Z,3.64
2018-01-16T08:25:57.352Z,3.63
2018-01-16T08:28:25.097Z,3.69
2018-01-16T08:30:52.953Z,4.10
2018-01-16T08:33:20.628Z,4.36
2018-01-16T08:35:48.197Z,5.25
2018-01-16T08:38:16.111Z,6.76
2018-01-16T08:40:43.695Z,7.41
2018-01-16T08:43:12.356Z,7.13
2018-01-16T08:45:40.026Z,6.68
2018-01-16T08:48:07.604Z,7.10
2018-01-16T08:50:35.269Z,7.21
2018-01-16T08:53:02.981Z,6.32
2018-01-16T08:55:30.611Z,6.30
2018-01-16T08:57:58.178Z,6.63
2018-01-16T09:00:25.937Z,7.05
2018-01-16T09:02:53.804Z,7.15
2018-01-16T09:05:21.388Z,7.37
2018-01-16T09:07:49.010Z,8.26
2018-01-16T09:10:16.599Z,8.38
2018-01-16T09:12:44.240Z,9.24
2018-01-16T09:15:11.879Z,8.84
2018-01-16T09:17:39.572Z,8.80
2018-01-16T09:20:07.419Z,8.74
2018-01-16T09:22:35.064Z,9.33
2018-01-16T09:25:02.650Z,9.11
2018-01-16T09:27:30.245Z,9.07
2018-01-16T09:29:57.850Z,8.74
2018-01-16T09:32:25.440Z,8.78
2018-01-16T09:34:53.018Z,8.63
2018-01-16T09:37:20.745Z,8.79
2018-01-16T09:39:48.329Z,9.19
2018-01-16T09:42:15.988Z,10.18
2018-01-16T09:44:43.712Z,10.33
2018-01-16T09:47:11.507Z,11.60
2018-01-16T09:49:39.089Z,11.90
2018-01-16T09:52:06.846Z,11.67
2018-01-16T09:54:34.426Z,11.87
2018-01-16T09:57:02.013Z,13.26
2018-01-16T09:59:29.812Z,12.96
2018-01-16T10:01:57.387Z,12.65
2018-01-16T10:04:25.051Z,12.39
2018-01-16T10:06:52.669Z,12.83
2018-01-16T10:09:20.274Z,13.05
2018-01-16T10:11:47.849Z,11.80
2018-01-16T10:14:15.493Z,10.30
2018-01-16T10:16:43.229Z,8.05
2018-01-16T10:19:10.922Z,7.84
2018-01-16T10:21:38.569Z,6.11
2018-01-16T10:24:06.245Z,4.88
2018-01-16T10:26:34.104Z,3.81
2018-01-16T10:29:01.775Z,4.30
2018-01-16T10:31:29.360Z,3.92
2018-01-16T10:33:57.099Z,4.79
2018-01-16T10:36:24.836Z,5.27
2018-01-16T10:38:52.617Z,4.66
2018-01-16T10:41:20.298Z,5.42
2018-01-16T10:43:47.915Z,4.34
2018-01-16T10:46:15.491Z,4.89
2018-01-16T10:48:43.101Z,5.09
2018-01-16T10:51:10.926Z,4.29
2018-01-16T10:53:38.590Z,4.17
2018-01-16T10:56:06.260Z,4.39
2018-01-16T10:58:33.872Z,4.61
2018-01-16T11:01:01.583Z,4.86
2018-01-16T11:03:29.332Z,5.72
2018-01-16T11:05:56.936Z,5.99
2018-01-16T11:08:24.509Z,5.83
2018-01-16T11:10:52.222Z,6.01
2018-01-16T11:13:19.835Z,5.98
2018-01-16T11:15:47.413Z,6.34
2018-01-16T11:18:15.014Z,7.26
2018-01-16T11:20:42.616Z,7.83
2018-01-16T11:23:10.182Z,7.98
2018-01-16T11:25:37.800Z,7.59
2018-01-16T11:28:05.450Z,7.59
2018-01-16T11:30:33.111Z,8.08
2018-01-16T11:33:00.787Z,8.68
2018-01-16T11:35:28.511Z,8.18
2018-01-16T11:37:56.316Z,8.24
2018-01-16T11:40:23.978Z,8.61
2018-01-16T11:42:51.585Z,8.27
2018-01-16T11:45:19.507Z,7.65
2018-01-16T11:47:47.067Z,7.33
2018-01-16T11:50:14.712Z,6.86
2018-01-16T11:52:42.293Z,6.10
2018-01-16T11:55:10.094Z,5.66
2018-01-16T11:57:37.805Z,5.32
2018-01-16T12:00:05.420Z,6.26
2018-01-16T12:02:33.141Z,7.66
2018-01-16T12:05:00.829Z,8.27
2018-01-16T12:07:28.656Z,9.39
2018-01-16T12:09:56.335Z,9.05
2018-01-16T12:12:23.976Z,10.71
2018-01-16T12:14:51.588Z,11.29
2018-01-16T12:17:19.315Z,11.07
2018-01-16T12:19:46.954Z,11.15
2018-01-16T12:22:14.593Z,11.67
2018-01-16T12:24:42.299Z,12.15
2018-01-16T12:27:09.904Z,12.46
2018-01-16T12:29:37.484Z,11.30
2018-01-16T12:32:05.089Z,10.37
2018-01-16T12:34:32.705Z,9.51
2018-01-16T12:37:00.415Z,8.66
2018-01-16T12:39:28.124Z,8.15
2018-01-16T12:41:55.929Z,6.89
2018-01-16T12:44:23.588Z,6.51
2018-01-16T12:46:51.217Z,5.82
2018-01-16T12:49:18.827Z,5.61
2018-01-16T12:51:46.402Z,5.37
2018-01-16T12:54:14.047Z,5.37
2018-01-16T12:56:41.713Z,5.25
2018-01-16T12:59:09.289Z,4.83
2018-01-16T13:01:39.050Z,4.79
2018-01-16T13:04:08.364Z,4.77
2018-01-16T13:06:36.039Z,4.28
2018-01-16T13:09:03.912Z,3.86
2018-01-16T13:11:31.522Z,3.50
2018-01-16T13:13:59.327Z,3.39
2018-01-16T13:16:27.094Z,3.29
2018-01-16T13:18:54.764Z,3.02
2018-01-16T13:21:22.431Z,3.10
2018-01-16T13:23:50.013Z,2.68
2018-01-16T13:26:17.617Z,2.47
2018-01-16T13:28:45.192Z,2.72
2018-01-16T13:31:12.808Z,2.88
2018-01-16T13:33:40.437Z,3.21
2018-01-16T13:36:08.042Z,3.54
2018-01-16T13:38:35.849Z,3.54
2018-01-16T13:41:03.478Z,3.62
2018-01-16T13:43:31.051Z,3.66
2018-01-16T13:45:58.647Z,3.80
2018-01-16T13:48:26.267Z,3.79
2018-01-16T13:50:53.883Z,4.30
2018-01-16T13:53:21.484Z,4.28
2018-01-16T13:55:49.109Z,4.13
2018-01-16T13:58:16.677Z,4.21
2018-01-16T14:00:44.257Z,4.21
2018-01-16T14:03:11.852Z,4.33
2018-01-16T14:05:39.429Z,4.15
2018-01-16T14:08:07.013Z,4.03
2018-01-16T14:10:34.618Z,4.06
2018-01-16T14:13:02.202Z,4.14
2018-01-16T14:15:29.769Z,3.96
2018-01-16T14:17:57.371Z,3.86
2018-01-16T14:20:24.954Z,3.78
2018-01-16T14:22:52.528Z,3.53
2018-01-16T14:25:20.127Z,3.38
2018-01-16T14:27:47.696Z,3.09
2018-01-16T14:30:15.286Z,2.75
2018-01-16T14:32:42.906Z,2.49
2018-01-16T14:35:10.490Z,2.24
2018-01-16T14:37:38.097Z,2.04
2018-01-16T14:40:05.694Z,1.90
2018-01-16T14:42:33.275Z,1.80
2018-01-16T14:45:00.843Z,1.55
2018-01-16T14:47:28.460Z,1.33
2018-01-16T14:49:56.037Z,1.17
2018-01-16T14:52:23.613Z,1.05
2018-01-16T14:54:51.218Z,0.96
2018-01-16T14:57:18.783Z,0.83
2018-01-16T14:59:46.357Z,0.77
2018-01-16T15:02:13.970Z,0.77
2018-01-16T15:04:41.561Z,0.67
2018-01-16T15:07:09.141Z,0.67
2018-01-16T15:09:36.765Z,0.70
2018-01-16T15:12:04.368Z,0.69
2018-01-16T15:14:31.940Z,0.70
2018-01-16T15:16:59.549Z,0.75
2018-01-16T15:19:27.133Z,0.71
2018-01-16T15:21:54.727Z,0.62
2018-01-16T15:24:22.327Z,0.63
2018-01-16T15:26:49.912Z,0.65
2018-01-16T15:29:17.493Z,0.68
2018-01-16T15:31:45.108Z,0.52
2018-01-16T15:34:12.687Z,0.43
2018-01-16T15:36:42.654Z,0.45
2018-01-16T15:39:10.403Z,0.42
2018-01-16T15:41:38.025Z,0.38
2018-01-16T15:44:05.600Z,0.29
2018-01-16T15:46:33.228Z,0.27
2018-01-16T15:49:00.796Z,0.25
2018-01-16T15:51:28.388Z,0.23
2018-01-16T15:53:56.005Z,0.14
2018-01-16T15:56:23.593Z,0.20
2018-01-16T15:58:51.178Z,0.15
2018-01-16T16:01:18.821Z,-0.05
2018-01-16T16:03:46.450Z,-0.09
2018-01-16T16:06:14.041Z,-0.13
2018-01-16T16:08:41.824Z,-0.18
2018-01-16T16:11:09.414Z,-0.16
2018-01-16T16:13:37.006Z,-0.21
2018-01-16T16:16:04.628Z,-0.29
2018-01-16T16:18:32.213Z,-0.23
2018-01-16T16:20:59.794Z,-0.14
2018-01-16T16:23:27.423Z,-0.07
2018-01-16T16:25:55.018Z,-0.04
2018-01-16T16:28:22.595Z,0.00
2018-01-16T16:30:50.274Z,0.06
2018-01-16T16:33:17.845Z,0.08
2018-01-16T16:35:45.441Z,0.09
2018-01-16T16:38:13.070Z,0.05
2018-01-16T16:40:40.641Z,0.05
2018-01-16T16:43:08.234Z,0.09
2018-01-16T16:45:35.843Z,0.03
2018-01-16T16:48:03.415Z,-0.01
2018-01-16T16:50:30.990Z,-0.08
2018-01-16T16:52:58.624Z,-0.15
2018-01-16T16:55:26.186Z,-0.21
2018-01-16T16:57:53.751Z,-0.27
2018-01-16T17:00:21.377Z,-0.37
2018-01-16T17:02:48.947Z,-0.45
2018-01-16T17:05:16.490Z,-0.57
2018-01-16T17:07:44.077Z,-0.66
2018-01-16T17:10:11.649Z,-0.70
2018-01-16T17:12:39.226Z,-0.59
2018-01-16T17:15:06.843Z,-0.56
2018-01-16T17:17:34.454Z,-0.49
2018-01-16T17:20:02.061Z,-0.44
2018-01-16T17:22:29.673Z,-0.47
2018-01-16T17:24:57.263Z,-0.41
2018-01-16T17:27:24.825Z,-0.39
2018-01-16T17:29:52.429Z,-0.34
2018-01-16T17:32:20.016Z,-0.27
2018-01-16T17:34:47.605Z,-0.18
2018-01-16T17:37:15.210Z,-0.17
2018-01-16T17:39:42.772Z,-0.10
2018-01-16T17:42:10.337Z,-0.01
2018-01-16T17:44:38.033Z,0.04
2018-01-16T17:47:05.606Z,0.11
2018-01-16T17:49:33.185Z,0.16
2018-01-16T17:52:00.798Z,0.15
2018-01-16T17:54:28.354Z,0.15
2018-01-16T17:56:55.918Z,0.20
2018-01-16T17:59:23.518Z,0.22
2018-01-16T18:01:51.112Z,0.24
2018-01-16T18:04:18.692Z,0.31
2018-01-16T18:06:46.302Z,0.35
2018-01-16T18:09:13.890Z,0.37
2018-01-16T18:11:41.659Z,0.39
2018-01-16T18:14:09.258Z,0.41
2018-01-16T18:16:36.826Z,0.21
2018-01-16T18:19:04.492Z,0.24
2018-01-16T18:21:32.094Z,0.15
2018-01-16T18:23:59.636Z,0.09
2018-01-16T18:26:27.213Z,0.05
2018-01-16T18:28:54.830Z,0.07
2018-01-16T18:31:22.397Z,-0.19
2018-01-16T18:33:50.178Z,-0.18
2018-01-16T18:36:17.796Z,-0.15
2018-01-16T18:38:45.369Z,-0.07
2018-01-16T18:41:12.939Z,-0.05
2018-01-16T18:43:40.558Z,-0.08
2018-01-16T18:46:08.118Z,-0.04
2018-01-16T18:48:35.675Z,-0.04
2018-01-16T18:51:03.939Z,-0.09
2018-01-16T18:53:31.496Z,-0.15
2018-01-16T18:55:59.074Z,-0.18
2018-01-16T18:58:26.653Z,-0.24
2018-01-16T19:00:54.207Z,-0.29
2018-01-16T19:03:21.765Z,-0.37
2018-01-16T19:05:49.385Z,-0.47
2018-01-16T19:08:16.945Z,-0.51
2018-01-16T19:10:44.514Z,-0.52
2018-01-16T19:13:12.135Z,-0.48
2018-01-16T19:15:39.724Z,-0.49
2018-01-16T19:18:07.282Z,-0.54
2018-01-16T19:20:34.896Z,-0.53
2018-01-16T19:23:02.473Z,-0.57
2018-01-16T19:25:30.041Z,-0.61
2018-01-16T19:27:57.635Z,-0.63
2018-01-16T19:30:25.210Z,-0.67
2018-01-16T19:32:52.764Z,-0.72
2018-01-16T19:35:20.409Z,-0.77
2018-01-16T19:37:47.973Z,-0.71
2018-01-16T19:40:15.538Z,-0.64
2018-01-16T19:42:43.137Z,-0.56
2018-01-16T19:45:10.757Z,-0.43
2018-01-16T19:47:38.309Z,-0.37
2018-01-16T19:50:05.903Z,-0.33
2018-01-16T19:52:33.466Z,-0.30
2018-01-16T19:55:01.040Z,-0.26
2018-01-16T19:57:28.731Z,-0.23
2018-01-16T19:59:56.310Z,-0.24
2018-01-16T20:02:23.877Z,-0.24
2018-01-16T20:04:52.630Z,-0.26
2018-01-16T20:07:20.188Z,-0.28
2018-01-16T20:09:47.752Z,-0.36
2018-01-16T20:12:15.359Z,-0.37
2018-01-16T20:14:43.878Z,-0.42
2018-01-16T20:17:11.436Z,-0.45
2018-01-16T20:19:39.036Z,-0.45
2018-01-16T20:22:06.600Z,-0.54
2018-01-16T20:24:34.165Z,-0.61
2018-01-16T20:27:01.811Z,-0.71
2018-01-16T20:29:29.381Z,-0.73
2018-01-16T20:31:56.953Z,-0.70
2018-01-16T20:34:24.580Z,-0.72
2018-01-16T20:36:52.172Z,-0.70
2018-01-16T20:39:19.783Z,-0.63
2018-01-16T20:41:47.393Z,-0.60
2018-01-16T20:44:14.968Z,-0.54
2018-01-16T20:46:42.607Z,-0.42
2018-01-16T20:49:10.412Z,-0.25
2018-01-16T20:51:38.007Z,-0.25
2018-01-16T20:54:05.561Z,-0.34
2018-01-16T20:56:33.161Z,-0.32
2018-01-16T20:59:00.730Z,-0.32
2018-01-16T21:01:28.283Z,-0.27
2018-01-16T21:03:56.001Z,-0.28
2018-01-16T21:06:23.657Z,-0.21
2018-01-16T21:08:51.247Z,-0.26
2018-01-16T21:11:18.936Z,-0.36
2018-01-16T21:13:46.517Z,-0.32
2018-01-16T21:16:14.107Z,-0.31
2018-01-16T21:18:41.706Z,-0.25
2018-01-16T21:21:09.328Z,-0.16
2018-01-16T21:23:37.049Z,-0.12
2018-01-16T21:26:04.668Z,-0.06
2018-01-16T21:28:32.233Z,0.02
2018-01-16T21:30:59.800Z,0.12
2018-01-16T21:33:27.489Z,0.13
2018-01-16T21:35:55.130Z,0.08
2018-01-16T21:38:22.800Z,-0.12
2018-01-16T21:40:50.431Z,-0.09
2018-01-16T21:43:17.997Z,-0.09
2018-01-16T21:45:45.577Z,-0.26
2018-01-16T21:48:13.230Z,-0.38
2018-01-16T21:50:40.811Z,-0.34
2018-01-16T21:53:08.433Z,-0.34
2018-01-16T21:55:36.029Z,-0.39
2018-01-16T21:58:03.615Z,-0.43
2018-01-16T22:00:31.231Z,-0.42
2018-01-16T22:02:58.835Z,-0.40
2018-01-16T22:05:26.414Z,-0.30
2018-01-16T22:07:54.149Z,-0.26
2018-01-16T22:10:21.793Z,-0.25
2018-01-16T22:12:49.520Z,-0.11
2018-01-16T22:15:17.183Z,-0.04
2018-01-16T22:17:44.788Z,0.10
2018-01-16T22:20:12.380Z,0.12
2018-01-16T22:22:39.952Z,0.20
2018-01-16T22:25:07.554Z,0.31
2018-01-16T22:27:35.231Z,0.38
2018-01-16T22:30:02.820Z,0.46
2018-01-16T22:32:30.491Z,0.51
2018-01-16T22:34:58.066Z,0.38
2018-01-16T22:37:25.623Z,0.14
2018-01-16T22:39:53.333Z,0.05
2018-01-16T22:42:20.903Z,-0.07
2018-01-16T22:44:48.463Z,-0.21
2018-01-16T22:47:16.056Z,-0.20
2018-01-16T22:49:43.603Z,-0.18
2018-01-16T22:52:11.188Z,-0.12
2018-01-16T22:54:38.862Z,-0.15
2018-01-16T22:57:06.470Z,-0.17
2018-01-16T22:59:34.039Z,-0.18
2018-01-16T23:02:01.642Z,-0.33
2018-01-16T23:04:29.241Z,-0.32
2018-01-16T23:06:56.807Z,-0.33
2018-01-16T23:09:24.447Z,-0.41
2018-01-16T23:11:52.121Z,-0.38
2018-01-16T23:14:19.679Z,-0.48
2018-01-16T23:16:47.270Z,-0.41
2018-01-16T23:19:14.835Z,-0.49
2018-01-16T23:21:42.390Z,-0.61
2018-01-16T23:24:09.993Z,-0.63
2018-01-16T23:26:37.577Z,-0.69
2018-01-16T23:29:05.139Z,-0.77
2018-01-16T23:31:32.761Z,-0.75
2018-01-16T23:34:00.330Z,-0.70
2018-01-16T23:36:27.964Z,-0.66
2018-01-16T23:38:55.581Z,-0.71
2018-01-16T23:41:23.146Z,-0.69
2018-01-16T23:43:50.698Z,-0.91
2018-01-16T23:46:18.287Z,-1.00
2018-01-16T23:48:45.882Z,-0.93
2018-01-16T23:51:13.504Z,-0.87
2018-01-16T23:53:41.126Z,-0.90
2018-01-16T23:56:08.745Z,-1.06
2018-01-16T23:58:36.318Z,-1.09
